createdAt,value
2018-03-17T00:02:26.043Z,65.49
2018-03-17T00:05:15.554Z,67.05
2018-03-17T00:07:45.696Z,68.44
2018-03-17T00:10:15.718Z,67.94
2018-03-17T00:12:46.021Z,67.17
2018-03-17T00:15:15.610Z,66.73
2018-03-17T00:17:44.896Z,66.36
2018-03-17T00:20:15.431Z,66.20
2018-03-17T00:22:49.627Z,66.35
2018-03-17T00:25:19.785Z,66.50
2018-03-17T00:27:49.878Z,67.22
2018-03-17T00:30:19.888Z,66.31
2018-03-17T00:32:49.749Z,65.96
2018-03-17T00:35:19.304Z,66.50
2018-03-17T00:37:50.310Z,66.27
2018-03-17T00:40:19.570Z,67.68
2018-03-17T00:42:49.583Z,67.90
2018-03-17T00:45:22.126Z,66.73
2018-03-17T00:47:52.512Z,66.87
2018-03-17T00:50:24.005Z,67.42
2018-03-17T00:52:55.306Z,67.43
2018-03-17T00:55:25.375Z,67.74
2018-03-17T00:57:55.740Z,67.27
2018-03-17T01:00:25.024Z,67.47
2018-03-17T01:02:54.841Z,66.49
2018-03-17T01:05:24.542Z,66.81
2018-03-17T01:07:56.029Z,66.64
2018-03-17T01:10:25.320Z,65.90
2018-03-17T01:12:55.693Z,65.90
2018-03-17T01:15:26.699Z,65.89
2018-03-17T01:17:57.866Z,65.92
2018-03-17T01:20:27.388Z,65.82
2018-03-17T01:22:58.438Z,65.37
2018-03-17T01:25:27.737Z,64.51
2018-03-17T01:28:07.251Z,65.52
2018-03-17T01:30:43.105Z,67.38
2018-03-17T01:33:15.643Z,67.40
2018-03-17T01:35:50.716Z,68.03
2018-03-17T01:41:24.809Z,68.11
2018-03-17T01:44:05.930Z,67.41
2018-03-17T01:46:43.365Z,65.46
2018-03-17T01:49:20.902Z,64.89
2018-03-17T01:51:51.447Z,65.43
2018-03-17T01:54:31.463Z,66.38
2018-03-17T01:57:02.323Z,66.79
2018-03-17T01:59:32.551Z,66.27
2018-03-17T02:02:21.827Z,67.68
2018-03-17T02:04:59.886Z,67.48
2018-03-17T02:07:31.568Z,67.03
2018-03-17T02:10:07.043Z,67.13
2018-03-17T02:12:37.408Z,66.46
2018-03-17T02:15:13.258Z,66.53
2018-03-17T02:17:44.376Z,66.78
2018-03-17T02:20:23.024Z,65.90
2018-03-17T02:22:59.364Z,65.52
2018-03-17T02:25:30.208Z,65.92
2018-03-17T02:28:01.183Z,65.70
2018-03-17T02:30:30.567Z,65.89
2018-03-17T02:32:59.871Z,66.01
2018-03-17T02:35:34.940Z,66.90
2018-03-17T02:38:04.382Z,66.81
2018-03-17T02:40:34.422Z,66.26
2018-03-17T02:43:11.788Z,65.86
2018-03-17T02:45:41.456Z,67.31
2018-03-17T02:48:13.228Z,67.83
2018-03-17T02:50:43.538Z,67.36
2018-03-17T02:53:13.025Z,66.33
2018-03-17T02:55:42.324Z,67.06
2018-03-17T02:58:12.765Z,68.21
2018-03-17T03:00:42.289Z,67.79
2018-03-17T03:03:13.858Z,68.58
2018-03-17T03:05:43.531Z,68.17
2018-03-17T03:08:13.499Z,67.44
2018-03-17T03:10:43.131Z,68.01
2018-03-17T03:13:14.126Z,68.92
2018-03-17T03:15:45.457Z,68.81
2018-03-17T03:18:18.392Z,68.12
2018-03-17T03:20:54.306Z,68.60
2018-03-17T03:23:26.885Z,69.11
2018-03-17T03:26:03.149Z,68.15
2018-03-17T03:28:34.986Z,66.86
2018-03-17T03:31:05.337Z,66.89
2018-03-17T03:33:35.528Z,66.89
2018-03-17T03:36:05.955Z,66.51
2018-03-17T03:38:36.884Z,66.18
2018-03-17T03:41:09.640Z,65.60
2018-03-17T03:43:39.601Z,65.20
2018-03-17T03:46:15.340Z,65.72
2018-03-17T03:48:48.783Z,65.97
2018-03-17T03:51:21.163Z,65.66
2018-03-17T03:53:51.236Z,66.24
2018-03-17T03:56:22.375Z,66.20
2018-03-17T03:58:53.055Z,66.30
2018-03-17T04:01:23.403Z,66.25
2018-03-17T04:03:58.837Z,68.04
2018-03-17T04:06:31.707Z,67.91
2018-03-17T04:09:01.769Z,67.83
2018-03-17T04:11:31.857Z,66.74
2018-03-17T04:14:05.258Z,66.09
2018-03-17T04:16:35.926Z,65.85
2018-03-17T04:19:06.924Z,65.41
2018-03-17T04:21:37.187Z,65.91
2018-03-17T04:24:09.586Z,65.37
2018-03-17T04:26:43.731Z,63.94
2018-03-17T04:29:15.146Z,64.24
2018-03-17T04:31:46.221Z,64.59
2018-03-17T04:34:16.586Z,64.37
2018-03-17T04:36:49.509Z,64.55
2018-03-17T04:39:22.270Z,64.51
2018-03-17T04:41:54.208Z,64.52
2018-03-17T04:44:26.947Z,62.98
2018-03-17T04:46:56.653Z,63.65
2018-03-17T04:49:27.552Z,63.71
2018-03-17T04:51:58.447Z,63.62
2018-03-17T04:54:29.487Z,64.09
2018-03-17T04:57:01.550Z,63.42
2018-03-17T04:59:32.827Z,63.76
2018-03-17T05:02:11.895Z,63.02
2018-03-17T05:04:43.942Z,63.87
2018-03-17T05:07:15.323Z,63.12
2018-03-17T05:10:10.507Z,62.63
2018-03-17T05:12:44.187Z,64.05
2018-03-17T05:15:14.314Z,62.88
2018-03-17T05:17:45.875Z,62.58
2018-03-17T05:20:17.698Z,63.37
2018-03-17T05:22:49.184Z,63.03
2018-03-17T05:25:19.623Z,63.29
2018-03-17T05:27:51.588Z,62.81
2018-03-17T05:30:22.151Z,63.52
2018-03-17T05:32:54.115Z,63.63
2018-03-17T05:35:24.404Z,63.79
2018-03-17T05:37:53.710Z,63.52
2018-03-17T05:40:24.011Z,63.44
2018-03-17T05:42:53.285Z,63.38
2018-03-17T05:45:34.927Z,62.99
2018-03-17T05:48:05.011Z,62.51
2018-03-17T05:50:35.292Z,63.29
2018-03-17T05:53:04.596Z,63.82
2018-03-17T05:55:33.883Z,63.37
2018-03-17T05:58:03.517Z,63.10
2018-03-17T06:00:32.779Z,63.06
2018-03-17T06:03:02.081Z,62.17
2018-03-17T06:05:31.491Z,62.15
2018-03-17T06:08:03.459Z,61.96
2018-03-17T06:10:34.193Z,60.75
2018-03-17T06:13:05.341Z,61.23
2018-03-17T06:15:36.558Z,61.93
2018-03-17T06:18:05.839Z,61.67
2018-03-17T06:20:35.766Z,61.38
2018-03-17T06:23:05.071Z,61.02
2018-03-17T06:25:34.353Z,60.68
2018-03-17T06:28:04.471Z,60.24
2018-03-17T06:30:36.151Z,60.14
2018-03-17T06:33:05.434Z,60.54
2018-03-17T06:35:34.789Z,61.36
2018-03-17T06:38:10.203Z,60.71
2018-03-17T06:40:40.250Z,61.39
2018-03-17T06:43:09.539Z,61.42
2018-03-17T06:45:38.964Z,61.14
2018-03-17T06:48:08.411Z,60.75
2018-03-17T06:50:39.294Z,61.62
2018-03-17T06:53:08.686Z,60.96
2018-03-17T06:55:37.994Z,60.44
2018-03-17T06:58:07.343Z,60.25
2018-03-17T07:00:36.969Z,59.98
2018-03-17T07:03:06.937Z,60.47
2018-03-17T07:05:36.367Z,59.87
2018-03-17T07:08:05.816Z,59.90
2018-03-17T07:10:37.518Z,60.14
2018-03-17T07:13:15.391Z,59.86
2018-03-17T07:15:53.514Z,59.25
2018-03-17T07:18:23.907Z,58.56
2018-03-17T07:20:59.012Z,58.64
2018-03-17T07:23:48.996Z,57.65
2018-03-17T07:26:19.171Z,57.48
2018-03-17T07:28:49.632Z,57.92
2018-03-17T07:31:18.948Z,58.60
2018-03-17T07:33:48.709Z,58.68
2018-03-17T07:36:18.056Z,58.65
2018-03-17T07:38:48.551Z,58.57
2018-03-17T07:41:17.861Z,58.98
2018-03-17T07:43:48.018Z,59.49
2018-03-17T07:46:18.155Z,61.36
2018-03-17T07:48:48.418Z,61.34
2018-03-17T07:51:17.781Z,61.60
2018-03-17T07:53:49.031Z,61.96
2018-03-17T07:56:18.348Z,60.53
2018-03-17T07:58:48.967Z,59.52
2018-03-17T08:01:18.358Z,59.57
2018-03-17T08:03:49.532Z,59.40
2018-03-17T08:06:18.802Z,59.01
2018-03-17T08:08:48.543Z,57.88
2018-03-17T08:11:18.049Z,58.77
2018-03-17T08:13:50.664Z,58.42
2018-03-17T08:16:23.353Z,58.62
2018-03-17T08:18:56.109Z,58.69
2018-03-17T08:21:28.190Z,57.61
2018-03-17T08:23:59.906Z,57.36
2018-03-17T08:26:29.532Z,57.54
2018-03-17T08:28:58.867Z,58.05
2018-03-17T08:31:28.294Z,58.52
2018-03-17T08:33:57.636Z,58.58
2018-03-17T08:36:27.048Z,57.77
2018-03-17T08:38:57.257Z,58.21
2018-03-17T08:41:27.453Z,58.39
2018-03-17T08:43:56.808Z,58.49
2018-03-17T08:46:26.374Z,60.79
2018-03-17T08:48:56.491Z,60.58
2018-03-17T08:51:25.810Z,60.25
2018-03-17T08:53:56.240Z,59.54
2018-03-17T08:56:25.535Z,58.79
2018-03-17T08:58:56.256Z,58.68
2018-03-17T09:01:26.482Z,59.87
2018-03-17T09:03:55.809Z,60.90
2018-03-17T09:06:25.704Z,60.95
2018-03-17T09:08:55.783Z,60.77
2018-03-17T09:11:27.592Z,60.45
2018-03-17T09:13:58.800Z,61.37
2018-03-17T09:16:29.729Z,63.42
2018-03-17T09:19:02.181Z,63.35
2018-03-17T09:21:33.105Z,62.44
2018-03-17T09:24:07.102Z,62.27
2018-03-17T09:26:38.295Z,61.91
2018-03-17T09:29:09.271Z,64.29
2018-03-17T09:31:43.299Z,64.99
2018-03-17T09:34:16.131Z,65.21
2018-03-17T09:36:49.894Z,64.85
2018-03-17T09:39:20.767Z,64.44
2018-03-17T09:41:51.034Z,64.11
2018-03-17T09:44:22.356Z,64.14
2018-03-17T09:46:52.130Z,64.34
2018-03-17T09:49:21.420Z,66.86
2018-03-17T09:51:51.479Z,66.52
2018-03-17T09:54:21.304Z,66.88
2018-03-17T09:56:50.629Z,66.38
2018-03-17T09:59:19.901Z,66.16
2018-03-17T10:01:50.128Z,66.40
2018-03-17T10:04:19.454Z,65.51
2018-03-17T10:06:49.406Z,64.87
2018-03-17T10:09:19.552Z,64.10
2018-03-17T10:11:49.574Z,63.52
2018-03-17T10:14:18.858Z,62.94
2018-03-17T10:16:48.508Z,63.33
2018-03-17T10:19:19.309Z,63.85
2018-03-17T10:21:49.350Z,63.76
2018-03-17T10:24:18.671Z,63.03
2018-03-17T10:26:48.613Z,63.18
2018-03-17T10:29:17.944Z,64.12
2018-03-17T10:31:47.342Z,64.42
2018-03-17T10:34:16.686Z,64.45
2018-03-17T10:36:45.975Z,65.53
2018-03-17T10:39:16.783Z,65.34
2018-03-17T10:41:46.163Z,64.41
2018-03-17T10:44:16.598Z,64.43
2018-03-17T10:46:45.926Z,65.20
2018-03-17T10:49:15.833Z,66.07
2018-03-17T10:51:45.178Z,65.01
2018-03-17T10:54:14.487Z,65.35
2018-03-17T10:59:27.918Z,65.35
2018-03-17T11:02:05.099Z,64.18
2018-03-17T11:04:34.387Z,65.42
2018-03-17T11:07:03.711Z,65.11
2018-03-17T11:09:33.006Z,63.37
2018-03-17T11:12:02.368Z,63.58
2018-03-17T11:14:32.294Z,64.15
2018-03-17T11:17:01.912Z,64.46
2018-03-17T11:19:31.244Z,64.77
2018-03-17T11:22:00.547Z,64.55
2018-03-17T11:24:30.655Z,63.58
2018-03-17T11:27:00.002Z,64.66
2018-03-17T11:29:29.643Z,64.38
2018-03-17T11:31:59.732Z,62.73
2018-03-17T11:34:29.037Z,63.38
2018-03-17T11:36:58.399Z,63.39
2018-03-17T11:39:27.715Z,63.48
2018-03-17T11:41:57.081Z,63.30
2018-03-17T11:44:26.660Z,61.28
2018-03-17T11:46:56.826Z,62.09
2018-03-17T11:49:26.596Z,62.52
2018-03-17T11:51:55.986Z,62.10
2018-03-17T11:54:26.208Z,62.32
2018-03-17T11:56:56.329Z,61.51
2018-03-17T11:59:26.894Z,63.74
2018-03-17T12:01:56.196Z,63.44
2018-03-17T12:04:25.500Z,64.31
2018-03-17T12:06:54.835Z,64.34
2018-03-17T12:09:24.094Z,63.33
2018-03-17T12:11:53.495Z,62.58
2018-03-17T12:14:22.835Z,61.61
2018-03-17T12:16:52.128Z,62.22
2018-03-17T12:19:21.712Z,63.27
2018-03-17T12:21:51.315Z,62.65
2018-03-17T12:24:20.675Z,62.38
2018-03-17T12:26:50.531Z,63.21
2018-03-17T12:29:20.245Z,63.44
2018-03-17T12:31:50.156Z,65.18
2018-03-17T12:34:19.472Z,65.40
2018-03-17T12:36:51.913Z,63.61
2018-03-17T12:39:21.278Z,63.73
2018-03-17T12:41:50.788Z,64.64
2018-03-17T12:44:20.117Z,63.96
2018-03-17T12:46:50.676Z,63.18
2018-03-17T12:49:19.995Z,63.06
2018-03-17T12:51:50.391Z,62.88
2018-03-17T12:54:19.744Z,62.73
2018-03-17T12:56:50.008Z,62.09
2018-03-17T12:59:20.766Z,61.75
2018-03-17T13:01:50.957Z,61.49
2018-03-17T13:04:23.532Z,60.80
2018-03-17T13:06:53.255Z,60.22
2018-03-17T13:09:23.535Z,61.15
2018-03-17T13:11:53.286Z,61.24
2018-03-17T13:14:28.059Z,59.70
2018-03-17T13:16:57.384Z,60.24
2018-03-17T13:19:32.671Z,60.36
2018-03-17T13:22:02.026Z,60.95
2018-03-17T13:24:31.360Z,61.44
2018-03-17T13:27:18.487Z,60.90
2018-03-17T13:29:48.582Z,59.80
2018-03-17T13:32:35.597Z,62.29
2018-03-17T13:35:04.916Z,63.43
2018-03-17T13:37:41.512Z,63.46
2018-03-17T13:43:22.952Z,61.58
2018-03-17T13:45:52.440Z,61.62
2018-03-17T13:48:21.756Z,60.63
2018-03-17T13:50:55.992Z,63.23
2018-03-17T13:53:25.429Z,64.36
2018-03-17T13:55:54.751Z,66.34
2018-03-17T14:01:04.700Z,65.79
2018-03-17T14:03:37.495Z,64.84
2018-03-17T14:06:06.819Z,64.25
2018-03-17T14:08:36.261Z,66.36
2018-03-17T14:11:05.661Z,66.55
2018-03-17T14:13:36.557Z,65.52
2018-03-17T14:16:09.279Z,64.78
2018-03-17T14:18:40.682Z,64.27
2018-03-17T14:21:12.214Z,64.61
2018-03-17T14:23:42.631Z,64.57
2018-03-17T14:26:12.823Z,64.08
2018-03-17T14:28:43.197Z,63.84
2018-03-17T14:31:16.915Z,62.99
2018-03-17T14:33:49.000Z,62.59
2018-03-17T14:36:19.126Z,62.30
2018-03-17T14:38:50.939Z,62.74
2018-03-17T14:41:23.205Z,63.27
2018-03-17T14:43:59.447Z,62.79
2018-03-17T14:46:33.553Z,61.73
2018-03-17T14:49:03.924Z,61.99
2018-03-17T14:51:34.053Z,61.65
2018-03-17T14:54:05.708Z,61.20
2018-03-17T14:56:39.359Z,61.48
2018-03-17T14:59:09.953Z,61.64
2018-03-17T15:01:41.009Z,61.12
2018-03-17T15:04:12.302Z,61.74
2018-03-17T15:06:47.867Z,62.08
2018-03-17T15:09:18.949Z,61.51
2018-03-17T15:11:50.158Z,62.37
2018-03-17T15:14:25.265Z,61.58
2018-03-17T15:16:56.597Z,62.11
2018-03-17T15:19:34.554Z,62.84
2018-03-17T15:22:06.287Z,62.61
2018-03-17T15:24:37.657Z,62.29
2018-03-17T15:27:09.540Z,62.49
2018-03-17T15:29:41.467Z,62.67
2018-03-17T15:32:14.052Z,63.22
2018-03-17T15:34:45.386Z,63.31
2018-03-17T15:37:18.954Z,62.11
2018-03-17T15:39:52.306Z,61.66
2018-03-17T15:42:23.654Z,61.49
2018-03-17T15:44:55.014Z,61.74
2018-03-17T15:47:29.044Z,62.19
2018-03-17T15:50:01.171Z,62.40
2018-03-17T15:52:36.944Z,61.84
2018-03-17T15:55:08.655Z,61.24
2018-03-17T15:57:42.007Z,60.88
2018-03-17T16:00:14.494Z,61.28
2018-03-17T16:02:45.919Z,62.73
2018-03-17T16:05:25.703Z,62.76
2018-03-17T16:07:57.559Z,62.04
2018-03-17T16:10:37.058Z,61.74
2018-03-17T16:13:10.238Z,61.66
2018-03-17T16:15:46.043Z,61.49
2018-03-17T16:18:17.954Z,61.44
2018-03-17T16:20:47.716Z,61.64
2018-03-17T16:23:20.597Z,60.56
2018-03-17T16:25:55.397Z,60.38
2018-03-17T16:28:26.821Z,61.30
2018-03-17T16:31:01.380Z,61.66
2018-03-17T16:33:33.195Z,61.36
2018-03-17T16:36:03.566Z,61.49
2018-03-17T16:38:37.055Z,61.63
2018-03-17T16:41:11.033Z,61.59
2018-03-17T16:43:44.056Z,61.65
2018-03-17T16:46:18.612Z,62.31
2018-03-17T16:48:50.341Z,63.27
2018-03-17T16:51:20.479Z,63.12
2018-03-17T16:53:52.748Z,62.67
2018-03-17T16:56:25.186Z,61.81
2018-03-17T17:01:33.151Z,62.16
2018-03-17T17:04:11.138Z,61.78
2018-03-17T17:06:41.647Z,61.08
2018-03-17T17:09:13.552Z,62.29
2018-03-17T17:11:46.899Z,62.77
2018-03-17T17:14:18.088Z,61.57
2018-03-17T17:16:51.418Z,61.66
2018-03-17T17:22:00.649Z,60.67
2018-03-17T17:24:32.429Z,60.05
2018-03-17T17:27:04.789Z,60.29
2018-03-17T17:29:36.943Z,60.92
2018-03-17T17:32:09.645Z,61.11
2018-03-17T17:34:43.222Z,60.25
2018-03-17T17:37:17.103Z,59.88
2018-03-17T17:39:47.583Z,60.12
2018-03-17T17:42:18.434Z,61.20
2018-03-17T17:44:51.173Z,59.99
2018-03-17T17:47:22.945Z,60.32
2018-03-17T17:49:54.397Z,60.56
2018-03-17T17:52:29.235Z,61.20
2018-03-17T17:55:00.008Z,61.69
2018-03-17T17:57:31.997Z,61.88
2018-03-17T18:00:04.323Z,62.92
2018-03-17T18:02:38.665Z,62.94
2018-03-17T18:05:11.793Z,62.53
2018-03-17T18:07:45.427Z,60.30
2018-03-17T18:10:22.185Z,61.37
2018-03-17T18:12:52.599Z,61.60
2018-03-17T18:15:23.457Z,61.58
2018-03-17T18:17:58.575Z,61.13
2018-03-17T18:20:28.737Z,62.54
2018-03-17T18:23:03.317Z,61.57
2018-03-17T18:25:37.085Z,61.28
2018-03-17T18:28:08.742Z,61.36
2018-03-17T18:33:17.579Z,60.73
2018-03-17T18:35:49.499Z,61.36
2018-03-17T18:38:19.717Z,61.09
2018-03-17T18:40:53.708Z,61.32
2018-03-17T18:43:24.675Z,61.36
2018-03-17T18:45:56.781Z,61.27
2018-03-17T18:48:28.372Z,61.10
2018-03-17T18:51:01.566Z,60.73
2018-03-17T18:53:32.529Z,61.03
2018-03-17T18:56:03.176Z,61.25
2018-03-17T18:58:33.867Z,61.42
2018-03-17T19:01:05.402Z,61.00
2018-03-17T19:03:37.532Z,61.69
2018-03-17T19:06:10.251Z,61.92
2018-03-17T19:08:40.403Z,62.18
2018-03-17T19:11:12.217Z,62.26
2018-03-17T19:13:44.178Z,62.18
2018-03-17T19:16:17.178Z,61.59
2018-03-17T19:18:47.873Z,61.58
2018-03-17T19:21:17.768Z,61.65
2018-03-17T19:23:47.957Z,61.80
2018-03-17T19:26:20.300Z,61.38
2018-03-17T19:28:53.975Z,61.08
2018-03-17T19:31:27.065Z,62.33
2018-03-17T19:33:58.964Z,62.43
2018-03-17T19:36:36.552Z,62.11
2018-03-17T19:39:07.663Z,60.84
2018-03-17T19:41:40.160Z,61.28
2018-03-17T19:44:13.968Z,61.83
2018-03-17T19:46:44.591Z,61.49
2018-03-17T19:49:17.115Z,61.07
2018-03-17T19:51:51.000Z,60.83
2018-03-17T19:54:23.163Z,61.83
2018-03-17T19:56:57.029Z,61.33
2018-03-17T19:59:30.486Z,62.16
2018-03-17T20:02:01.990Z,62.23
2018-03-17T20:04:35.554Z,62.21
2018-03-17T20:07:07.426Z,62.46
2018-03-17T20:09:45.070Z,61.72
2018-03-17T20:12:15.615Z,62.98
2018-03-17T20:14:49.764Z,64.08
2018-03-17T20:17:28.225Z,63.43
2018-03-17T20:20:01.132Z,61.99
2018-03-17T20:22:31.152Z,61.60
2018-03-17T20:25:05.480Z,61.65
2018-03-17T20:27:36.819Z,60.73
2018-03-17T20:30:10.943Z,60.62
2018-03-17T20:32:43.006Z,60.98
2018-03-17T20:35:13.912Z,61.58
2018-03-17T20:37:46.282Z,61.51
2018-03-17T20:40:16.326Z,61.34
2018-03-17T20:42:50.899Z,61.53
2018-03-17T20:45:22.285Z,61.76
2018-03-17T20:47:52.995Z,61.21
2018-03-17T20:50:26.719Z,61.35
2018-03-17T20:52:57.373Z,61.63
2018-03-17T20:55:31.175Z,61.26
2018-03-17T20:58:01.286Z,61.47
2018-03-17T21:00:33.118Z,61.50
2018-03-17T21:03:07.495Z,61.76
2018-03-17T21:05:42.780Z,62.03
2018-03-17T21:08:14.013Z,61.18
2018-03-17T21:10:49.615Z,60.84
2018-03-17T21:13:21.808Z,60.83
2018-03-17T21:15:51.842Z,60.29
2018-03-17T21:18:22.973Z,59.61
2018-03-17T21:20:55.950Z,60.69
2018-03-17T21:23:27.875Z,61.13
2018-03-17T21:25:59.071Z,61.68
2018-03-17T21:28:31.257Z,61.94
2018-03-17T21:31:02.571Z,62.47
2018-03-17T21:33:34.072Z,62.28
2018-03-17T21:36:04.622Z,62.31
2018-03-17T21:38:35.571Z,61.87
2018-03-17T21:41:09.504Z,61.24
2018-03-17T21:43:43.500Z,61.30
2018-03-17T21:46:16.167Z,63.00
2018-03-17T21:48:45.974Z,64.10
2018-03-17T21:51:19.478Z,63.76
2018-03-17T21:53:50.637Z,63.65
2018-03-17T21:56:21.596Z,63.36
2018-03-17T21:58:53.490Z,62.96
2018-03-17T22:01:23.843Z,62.80
2018-03-17T22:03:54.180Z,61.47
2018-03-17T22:06:24.695Z,61.96
2018-03-17T22:08:56.411Z,62.25
2018-03-17T22:11:26.545Z,62.03
2018-03-17T22:13:57.309Z,62.70
2018-03-17T22:16:28.677Z,63.00
2018-03-17T22:18:58.837Z,64.25
2018-03-17T22:21:31.838Z,63.82
2018-03-17T22:24:04.155Z,63.27
2018-03-17T22:29:49.555Z,63.43
2018-03-17T22:32:22.056Z,63.37
2018-03-17T22:34:54.177Z,62.52
2018-03-17T22:37:26.362Z,62.92
2018-03-17T22:39:59.488Z,63.10
2018-03-17T22:42:29.346Z,62.76
2018-03-17T22:45:02.683Z,62.56
2018-03-17T22:47:35.583Z,62.30
2018-03-17T22:50:06.951Z,62.19
2018-03-17T22:52:40.915Z,62.36
2018-03-17T22:55:11.927Z,62.21
2018-03-17T22:57:43.437Z,62.59
2018-03-17T23:00:14.516Z,62.92
2018-03-17T23:02:45.686Z,62.48
2018-03-17T23:05:17.445Z,62.30
2018-03-17T23:07:50.430Z,62.05
2018-03-17T23:10:25.312Z,60.81
2018-03-17T23:12:56.128Z,60.52
2018-03-17T23:15:27.029Z,60.16
2018-03-17T23:17:59.058Z,60.24
2018-03-17T23:20:34.144Z,60.55
2018-03-17T23:23:04.120Z,60.00
2018-03-17T23:25:37.690Z,59.70
2018-03-17T23:28:12.356Z,60.65
2018-03-17T23:30:43.673Z,60.63
2018-03-17T23:33:15.321Z,61.19
2018-03-17T23:35:45.683Z,61.33
2018-03-17T23:38:18.057Z,61.05
2018-03-17T23:40:49.656Z,61.06
2018-03-17T23:43:23.480Z,61.26
2018-03-17T23:45:59.591Z,61.65
2018-03-17T23:48:31.540Z,62.19
2018-03-17T23:51:05.788Z,62.24
2018-03-17T23:53:37.223Z,61.57
2018-03-17T23:56:09.987Z,61.37
2018-03-17T23:58:43.901Z,61.41
